Time;durP1;ratioP1;P1;durP2;ratioP2;P2;SDS_P1;SDS_P2;PMS_P1;PMS_P2;Temp;Humidity;BMP_temperature;BMP_pressure;BME280_temperature;BME280_humidity;BME280_pressure;Samples;Min_cycle;Max_cycle;Signal;HPM_P1;HPM_P2
2023/07/16 00:01:36;;;;;;;16.65;13.98;;;640.10;2432.00;;;;;;5090099;28;20021;-64
2023/07/16 00:04:02;;;;;;;14.55;13.05;;;640.10;2432.00;;;;;;5090613;28;20023;-63
2023/07/16 00:06:27;;;;;;;19.15;14.23;;;640.20;2432.00;;;;;;5090183;28;20582;-64
2023/07/16 00:08:53;;;;;;;21.33;15.80;;;640.20;2432.00;;;;;;5090620;28;20122;-65
2023/07/16 00:11:19;;;;;;;15.95;14.52;;;640.10;2432.00;;;;;;5088396;28;20044;-63
2023/07/16 00:13:47;;;;;;;14.88;13.27;;;640.10;2432.00;;;;;;5090618;28;20055;-63
2023/07/16 00:16:14;;;;;;;18.05;16.17;;;640.10;2432.00;;;;;;5090309;28;20032;-64
2023/07/16 00:18:42;;;;;;;18.98;17.02;;;640.00;2432.00;;;;;;5090621;28;20077;-67
2023/07/16 00:21:08;;;;;;;19.70;17.63;;;615.20;2432.00;;;;;;5090456;28;20382;-67
2023/07/16 00:23:34;;;;;;;21.65;18.23;;;615.10;2432.00;;;;;;5090207;28;20024;-66
2023/07/16 00:25:59;;;;;;;17.90;16.10;;;614.80;2432.00;;;;;;5089719;28;20020;-66
2023/07/16 00:28:25;;;;;;;18.52;16.58;;;614.70;2432.00;;;;;;5090112;28;20023;-66
2023/07/16 00:30:51;;;;;;;19.80;17.90;;;614.60;2432.00;;;;;;5089989;28;20049;-63
2023/07/16 00:33:16;;;;;;;19.45;17.42;;;614.60;2432.00;;;;;;5090183;28;20390;-64
2023/07/16 00:35:49;;;;;;;19.92;17.77;;;614.50;2432.00;;;;;;5090085;28;20035;-64
2023/07/16 00:38:18;;;;;;;19.58;17.63;;;614.40;2432.00;;;;;;5089821;28;20031;-64
2023/07/16 00:40:44;;;;;;;19.35;17.42;;;614.40;2432.00;;;;;;5089579;28;20032;-64
2023/07/16 00:43:10;;;;;;;20.15;18.25;;;589.70;2432.00;;;;;;5090191;28;20036;-64
2023/07/16 00:45:37;;;;;;;18.65;16.85;;;589.70;2432.00;;;;;;5080977;28;20028;-62
2023/07/16 00:48:05;;;;;;;20.13;18.08;;;589.70;2432.00;;;;;;5089238;28;20491;-68
2023/07/16 00:50:33;;;;;;;19.38;17.45;;;589.70;2432.00;;;;;;5088824;28;20044;-70
2023/07/16 00:53:03;;;;;;;22.38;18.10;;;589.60;2432.00;;;;;;5089950;28;20047;-70
2023/07/16 00:55:30;;;;;;;20.08;17.98;;;589.70;2432.00;;;;;;5089876;28;20032;-70
2023/07/16 00:58:05;;;;;;;21.38;17.25;;;589.60;2432.00;;;;;;5089461;28;20023;-67
2023/07/16 01:00:37;;;;;;;22.15;18.20;;;589.60;2432.00;;;;;;5089620;28;20020;-59
2023/07/16 01:03:08;;;;;;;20.05;18.00;;;589.50;2432.00;;;;;;5089484;28;20390;-59
2023/07/16 01:06:05;;;;;;;19.48;17.40;;;589.50;2432.00;;;;;;5089005;28;20053;-60
2023/07/16 01:09:07;;;;;;;20.08;18.17;;;589.50;2432.00;;;;;;5078561;28;20040;-62
2023/07/16 01:11:35;;;;;;;17.17;15.45;;;589.60;2432.00;;;;;;5046492;28;20040;-62
2023/07/16 01:14:02;;;;;;;18.35;16.50;;;589.70;2432.00;;;;;;5088769;28;20468;-63
2023/07/16 01:16:27;;;;;;;19.35;17.45;;;589.70;2432.00;;;;;;5089133;28;20398;-60
2023/07/16 01:18:53;;;;;;;19.83;16.48;;;589.60;2432.00;;;;;;5075055;28;20028;-60
2023/07/16 01:21:21;;;;;;;20.13;18.02;;;589.60;2432.00;;;;;;5089126;28;20031;-59
2023/07/16 01:24:24;;;;;;;20.20;18.10;;;589.60;2432.00;;;;;;5088519;28;20093;-60
2023/07/16 01:27:27;;;;;;;18.30;16.40;;;589.60;2432.00;;;;;;5089026;28;20035;-62
2023/07/16 01:30:03;;;;;;;19.17;17.20;;;589.60;2432.00;;;;;;5089041;28;20036;-60
2023/07/16 01:32:31;;;;;;;18.52;16.33;;;589.70;2432.00;;;;;;5089027;28;20035;-60
2023/07/16 01:34:57;;;;;;;19.20;17.25;;;589.60;2432.00;;;;;;5088995;28;20114;-60
2023/07/16 01:37:24;;;;;;;17.83;15.48;;;589.70;2432.00;;;;;;5089360;28;20020;-60
2023/07/16 01:39:49;;;;;;;17.65;15.77;;;589.70;2432.00;;;;;;5089046;28;20445;-60
2023/07/16 01:42:15;;;;;;;16.98;15.05;;;589.70;2432.00;;;;;;5088902;28;20032;-61
2023/07/16 01:44:41;;;;;;;19.95;16.08;;;589.70;2432.00;;;;;;5088925;28;20020;-64
2023/07/16 01:47:45;;;;;;;17.65;15.68;;;589.70;2432.00;;;;;;5088377;28;20048;-60
2023/07/16 01:50:11;;;;;;;19.20;15.07;;;589.70;2432.00;;;;;;5088642;28;20048;-59
2023/07/16 01:52:36;;;;;;;17.88;15.52;;;589.70;2432.00;;;;;;5088559;28;20085;-60
2023/07/16 01:55:02;;;;;;;19.77;17.20;;;589.70;2432.00;;;;;;5089024;28;20032;-60
2023/07/16 01:57:28;;;;;;;19.40;17.23;;;589.60;2432.00;;;;;;5088651;28;20470;-60
2023/07/16 01:59:53;;;;;;;17.83;16.02;;;589.60;2432.00;;;;;;5088756;28;20454;-60
2023/07/16 02:02:19;;;;;;;16.42;14.80;;;589.60;2432.00;;;;;;5092736;28;20028;-60
2023/07/16 02:04:45;;;;;;;17.98;14.88;;;589.60;2432.00;;;;;;5092852;28;20065;-60
2023/07/16 02:07:11;;;;;;;18.60;14.50;;;589.60;2432.00;;;;;;5092954;28;20031;-60
2023/07/16 02:09:36;;;;;;;16.77;14.85;;;589.60;2432.00;;;;;;5092168;28;20363;-60
2023/07/16 02:12:02;;;;;;;16.92;13.98;;;589.60;2432.00;;;;;;5092947;28;20032;-61
2023/07/16 02:14:28;;;;;;;15.52;13.98;;;589.70;2432.00;;;;;;5092370;28;20062;-60
2023/07/16 02:16:53;;;;;;;16.23;13.45;;;589.70;2432.00;;;;;;5092471;28;20070;-60
2023/07/16 02:19:19;;;;;;;16.90;13.60;;;589.70;2432.00;;;;;;5092794;28;20482;-60
2023/07/16 02:21:45;;;;;;;17.17;14.18;;;589.70;2432.00;;;;;;5092293;28;20564;-60
2023/07/16 02:24:10;;;;;;;17.42;14.07;;;589.70;2432.00;;;;;;5092618;28;20035;-60
2023/07/16 02:26:36;;;;;;;18.95;14.18;;;589.70;2432.00;;;;;;5092362;28;20527;-60
2023/07/16 02:29:02;;;;;;;19.10;14.52;;;589.70;2432.00;;;;;;5092168;28;20032;-60
2023/07/16 02:31:27;;;;;;;18.52;14.68;;;589.70;2432.00;;;;;;5092141;28;20032;-60
2023/07/16 02:33:53;;;;;;;15.73;13.70;;;589.70;2432.00;;;;;;5092331;28;20099;-60
2023/07/16 02:36:19;;;;;;;16.77;14.35;;;589.70;2432.00;;;;;;5090779;28;20039;-60
2023/07/16 02:38:44;;;;;;;14.07;12.48;;;589.70;2432.00;;;;;;5092151;28;20024;-60
2023/07/16 02:41:10;;;;;;;17.95;16.25;;;589.70;2432.00;;;;;;5092486;28;20032;-60
2023/07/16 02:43:36;;;;;;;20.00;15.70;;;589.70;2432.00;;;;;;5092157;28;20458;-60
2023/07/16 02:46:01;;;;;;;18.73;15.45;;;589.70;2432.00;;;;;;5092389;28;20048;-60
2023/07/16 02:48:28;;;;;;;19.65;17.10;;;589.70;2432.00;;;;;;5091989;28;20131;-60
2023/07/16 02:50:54;;;;;;;18.58;16.75;;;589.60;2432.00;;;;;;5092283;28;20031;-60
2023/07/16 02:53:20;;;;;;;19.02;17.00;;;589.60;2432.00;;;;;;5092195;28;20104;-60
2023/07/16 02:55:46;;;;;;;18.05;16.35;;;589.60;2432.00;;;;;;5092083;28;20028;-60
2023/07/16 02:58:12;;;;;;;18.55;16.05;;;589.50;2432.00;;;;;;5092606;28;20020;-60
2023/07/16 03:00:38;;;;;;;17.58;15.68;;;589.50;2432.00;;;;;;5091947;28;20061;-60
2023/07/16 03:03:03;;;;;;;19.90;15.95;;;589.40;2432.00;;;;;;5091989;28;20104;-60
2023/07/16 03:05:29;;;;;;;18.85;16.88;;;589.30;2432.00;;;;;;5092187;28;20219;-60
2023/07/16 03:07:55;;;;;;;20.75;16.45;;;589.30;2432.00;;;;;;5091665;28;20053;-60
2023/07/16 03:10:26;;;;;;;18.33;16.38;;;589.20;2432.00;;;;;;5091869;28;20036;-60
2023/07/16 03:12:52;;;;;;;19.88;17.70;;;589.20;2432.00;;;;;;5090715;28;20023;-60
2023/07/16 03:15:18;;;;;;;17.45;15.45;;;589.20;2432.00;;;;;;5091654;28;20024;-61
2023/07/16 03:17:44;;;;;;;17.92;16.13;;;589.10;2432.00;;;;;;5091363;28;20027;-60
2023/07/16 03:20:10;;;;;;;19.17;15.70;;;589.20;2432.00;;;;;;5091749;28;20024;-61
2023/07/16 03:22:35;;;;;;;19.02;16.38;;;589.20;2432.00;;;;;;5091580;28;20016;-60
2023/07/16 03:25:02;;;;;;;17.63;15.82;;;589.20;2432.00;;;;;;5091532;28;20466;-61
2023/07/16 03:27:28;;;;;;;18.00;16.23;;;589.30;2432.00;;;;;;5091414;28;20066;-60
2023/07/16 03:29:54;;;;;;;20.35;17.20;;;589.30;2432.00;;;;;;5091361;28;20535;-61
2023/07/16 03:32:20;;;;;;;18.40;16.35;;;588.90;2432.00;;;;;;5091542;28;20028;-60
2023/07/16 03:34:45;;;;;;;18.40;16.60;;;589.20;2432.00;;;;;;5091583;28;20099;-58
2023/07/16 03:37:11;;;;;;;19.92;16.05;;;589.20;2432.00;;;;;;5091571;28;20056;-61
2023/07/16 03:39:37;;;;;;;18.35;16.40;;;589.30;2432.00;;;;;;5091292;28;20095;-60
2023/07/16 03:42:03;;;;;;;17.92;16.13;;;589.40;2432.00;;;;;;5091239;28;20093;-59
2023/07/16 03:44:29;;;;;;;18.38;15.25;;;589.40;2432.00;;;;;;5091093;28;20599;-60
2023/07/16 03:46:55;;;;;;;18.55;14.88;;;589.50;2432.00;;;;;;5090775;28;20074;-60
2023/07/16 03:49:21;;;;;;;18.92;16.92;;;589.50;2432.00;;;;;;5091629;28;20028;-60
2023/07/16 03:51:46;;;;;;;19.73;17.63;;;589.50;2432.00;;;;;;5091044;28;20111;-60
2023/07/16 03:54:12;;;;;;;20.85;16.77;;;589.60;2432.00;;;;;;5091124;28;20474;-60
2023/07/16 03:56:38;;;;;;;18.33;16.23;;;589.70;2432.00;;;;;;5090832;28;20030;-60
2023/07/16 03:59:04;;;;;;;19.67;16.42;;;589.70;2432.00;;;;;;5091203;28;20458;-60
2023/07/16 04:01:29;;;;;;;18.65;16.65;;;614.40;2432.00;;;;;;5090931;28;20119;-60
2023/07/16 04:03:55;;;;;;;17.10;15.43;;;614.50;2432.00;;;;;;5091042;28;20060;-60
2023/07/16 04:06:21;;;;;;;16.27;14.60;;;614.60;2432.00;;;;;;5091011;28;20097;-60
2023/07/16 04:08:47;;;;;;;15.95;14.35;;;614.80;2432.00;;;;;;5090809;28;20157;-60
2023/07/16 04:11:12;;;;;;;16.38;14.68;;;614.80;2432.00;;;;;;5090526;28;20558;-61
2023/07/16 04:13:38;;;;;;;16.77;15.02;;;614.80;2432.00;;;;;;5090615;28;20020;-60
2023/07/16 04:16:04;;;;;;;16.38;14.70;;;614.90;2432.00;;;;;;5090133;28;20016;-60
2023/07/16 04:18:30;;;;;;;17.60;13.93;;;614.80;2432.00;;;;;;5090735;28;20495;-60
2023/07/16 04:20:55;;;;;;;17.10;15.10;;;614.90;2432.00;;;;;;5090269;28;20024;-61
2023/07/16 04:23:22;;;;;;;16.05;14.13;;;614.90;2432.00;;;;;;5090495;28;20027;-60
2023/07/16 04:25:51;;;;;;;15.13;13.52;;;615.00;2432.00;;;;;;5090383;28;20428;-60
2023/07/16 04:28:17;;;;;;;17.58;14.60;;;615.00;2432.00;;;;;;5090796;28;20416;-60
2023/07/16 04:30:43;;;;;;;16.70;14.32;;;615.10;2432.00;;;;;;5090141;28;20077;-60
2023/07/16 04:33:09;;;;;;;21.08;14.80;;;615.20;2432.00;;;;;;5090683;28;20023;-61
2023/07/16 04:35:35;;;;;;;19.17;15.52;;;615.20;2432.00;;;;;;5076339;28;20012;-61
2023/07/16 04:38:00;;;;;;;16.08;14.48;;;615.30;2432.00;;;;;;5090460;28;20455;-61
2023/07/16 04:40:26;;;;;;;19.27;14.77;;;640.10;2432.00;;;;;;5089977;28;20024;-59
2023/07/16 04:42:52;;;;;;;15.85;13.70;;;640.30;2432.00;;;;;;5090416;28;20066;-60
2023/07/16 04:45:18;;;;;;;16.02;14.38;;;640.90;2432.00;;;;;;5090050;28;20430;-60
2023/07/16 04:47:43;;;;;;;16.23;13.90;;;717.70;2432.00;;;;;;5089756;28;20044;-61
2023/07/16 04:50:09;;;;;;;;;;;793.70;2432.00;;;;;;5090292;28;20497;-62
2023/07/16 04:52:35;;;;;;;15.85;14.25;;;819.60;2329.60;;;;;;5090082;28;19990;-61
2023/07/16 04:55:00;;;;;;;15.45;14.15;;;845.00;2252.80;;;;;;5089913;28;20104;-61
2023/07/16 04:57:26;;;;;;;15.02;13.73;;;845.70;2124.80;;;;;;5089873;28;20111;-61
2023/07/16 04:59:52;;;;;;;14.70;13.40;;;871.10;2022.40;;;;;;5090149;28;20020;-61
2023/07/16 05:02:17;;;;;;;15.32;14.02;;;921.60;1945.60;;;;;;5089386;28;20474;-62
2023/07/16 05:04:44;;;;;;;16.23;14.75;;;;;;;;;;5089971;28;20016;-61
2023/07/16 05:07:10;;;;;;;15.40;13.88;;;922.30;1843.20;;;;;;5089878;28;20024;-61
2023/07/16 05:09:36;;;;;;;14.15;12.95;;;947.40;1792.00;;;;;;5089493;28;20016;-61
2023/07/16 05:12:02;;;;;;;14.35;13.15;;;922.40;1792.00;;;;;;5090084;28;20032;-61
2023/07/16 05:14:28;;;;;;;14.75;13.48;;;922.40;1792.00;;;;;;5089735;28;20095;-60
2023/07/16 05:16:55;;;;;;;17.02;15.38;;;;;;;;;;5089320;28;20089;-61
2023/07/16 05:19:21;;;;;;;17.33;15.52;;;922.50;1766.40;;;;;;5089694;28;20532;-61
2023/07/16 05:21:46;;;;;;;15.55;14.25;;;948.00;1715.20;;;;;;5089455;28;20032;-61
2023/07/16 05:24:12;;;;;;;18.60;16.85;;;;;;;;;;5089250;28;20528;-62
2023/07/16 05:26:38;;;;;;;17.65;16.35;;;;;;;;;;5089430;28;20028;-61
2023/07/16 05:29:04;;;;;;;18.55;16.98;;;973.10;1715.20;;;;;;5089092;28;20459;-61
2023/07/16 05:31:30;;;;;;;18.10;16.70;;;973.00;1715.20;;;;;;5089005;28;20048;-61
2023/07/16 05:33:56;;;;;;;17.75;16.35;;;973.70;1664.00;;;;;;5089256;28;20020;-63
2023/07/16 05:36:22;;;;;;;17.35;16.08;;;973.60;1664.00;;;;;;5088783;28;20039;-63
2023/07/16 05:38:47;;;;;;;18.52;16.80;;;999.00;1638.40;;;;;;5089444;28;20486;-64
2023/07/16 05:41:13;;;;;;;19.20;17.60;;;998.80;1638.40;;;;;;5089137;28;20386;-64
2023/07/16 05:43:39;;;;;;;19.33;17.73;;;1024.20;1612.80;;;;;;5089613;28;20056;-64
2023/07/16 05:46:05;;;;;;;18.20;16.70;;;1024.90;1561.60;;;;;;5088900;28;20023;-64
2023/07/16 05:48:31;;;;;;;17.27;16.08;;;1024.50;1587.20;;;;;;5089144;28;20060;-63
2023/07/16 05:50:57;;;;;;;19.05;17.75;;;;;;;;;;5089046;28;20036;-63
2023/07/16 05:53:23;;;;;;;18.70;17.20;;;1050.10;1561.60;;;;;;5089452;28;20028;-63
2023/07/16 05:55:49;;;;;;;19.75;18.23;;;1075.90;1484.80;;;;;;5088954;28;20077;-64
2023/07/16 05:58:16;;;;;;;19.15;17.85;;;1101.30;1459.20;;;;;;5081361;28;20059;-63
2023/07/16 06:00:41;;;;;;;19.65;18.15;;;1101.10;1459.20;;;;;;5068912;28;20435;-63
2023/07/16 06:03:07;;;;;;;20.88;19.25;;;1101.40;1459.20;;;;;;5068597;28;20535;-63
2023/07/16 06:05:34;;;;;;;20.48;18.48;;;1101.60;1433.60;;;;;;5068739;28;20117;-61
2023/07/16 06:08:01;;;;;;;19.60;18.20;;;1126.60;1433.60;;;;;;5069076;28;20013;-63
2023/07/16 06:10:27;;;;;;;19.70;18.15;;;1127.10;1382.40;;;;;;5083910;28;20047;-64
2023/07/16 06:12:52;;;;;;;21.13;19.17;;;1127.30;1382.40;;;;;;5089051;28;20103;-63
2023/07/16 06:15:18;;;;;;;23.55;21.55;;;1126.50;1433.60;;;;;;5079577;28;20032;-62
2023/07/16 06:17:44;;;;;;;23.65;21.88;;;1152.10;1382.40;;;;;;5070902;28;20068;-64
2023/07/16 06:20:10;;;;;;;23.33;21.83;;;1152.00;1356.80;;;;;;5088320;28;20028;-63
2023/07/16 06:22:36;;;;;;;22.70;21.20;;;1152.20;1356.80;;;;;;5080273;28;20036;-62
2023/07/16 06:25:02;;;;;;;23.10;21.20;;;1152.20;1356.80;;;;;;5074477;28;20039;-63
2023/07/16 06:27:28;;;;;;;23.98;22.27;;;1152.10;1382.40;;;;;;5072305;28;20021;-61
2023/07/16 06:29:53;;;;;;;22.50;20.85;;;1152.20;1382.40;;;;;;5068776;28;20021;-62
2023/07/16 06:32:20;;;;;;;23.67;21.92;;;1127.10;1408.00;;;;;;5068828;28;20036;-61
2023/07/16 06:34:46;;;;;;;22.27;20.65;;;1126.60;1433.60;;;;;;5067087;28;20031;-64
2023/07/16 06:37:11;;;;;;;21.02;19.27;;;1127.10;1382.40;;;;;;5068506;28;20033;-63
2023/07/16 06:39:37;;;;;;;22.27;20.42;;;1177.80;1305.60;;;;;;5068250;28;20021;-64
2023/07/16 06:42:03;;;;;;;23.85;22.00;;;1203.40;1305.60;;;;;;5068460;28;20075;-64
2023/07/16 06:44:28;;;;;;;23.00;21.45;;;1178.00;1331.20;;;;;;5078109;28;20028;-62
2023/07/16 06:46:54;;;;;;;22.80;20.70;;;1177.80;1331.20;;;;;;5081937;28;20391;-64
2023/07/16 06:49:21;;;;;;;21.33;19.90;;;1203.40;1305.60;;;;;;5084067;28;20032;-64
2023/07/16 06:51:47;;;;;;;23.17;21.20;;;1203.30;1331.20;;;;;;5071905;28;20102;-64
2023/07/16 06:54:12;;;;;;;23.30;21.42;;;1178.50;1280.00;;;;;;5072453;28;20470;-64
2023/07/16 06:56:38;;;;;;;21.33;19.92;;;1178.20;1305.60;;;;;;5083300;28;20071;-64
2023/07/16 06:59:04;;;;;;;23.83;22.13;;;1203.40;1254.40;;;;;;5071885;28;20028;-63
2023/07/16 07:01:29;;;;;;;22.13;20.50;;;1203.30;1305.60;;;;;;5087377;28;20145;-64
2023/07/16 07:03:55;;;;;;;22.65;20.90;;;1203.80;1228.80;;;;;;5087151;28;20025;-64
2023/07/16 07:06:21;;;;;;;22.75;21.25;;;1228.80;1280.00;;;;;;5082701;28;20060;-63
2023/07/16 07:08:47;;;;;;;22.42;20.92;;;1203.80;1280.00;;;;;;5091754;28;20454;-64
2023/07/16 07:11:13;;;;;;;23.23;21.73;;;1228.90;1280.00;;;;;;5092375;28;20081;-63
2023/07/16 07:13:39;;;;;;;22.80;21.10;;;1229.00;1254.40;;;;;;5092084;28;20481;-64
2023/07/16 07:16:04;;;;;;;24.27;22.60;;;1229.00;1228.80;;;;;;5091465;28;20024;-63
2023/07/16 07:18:30;;;;;;;23.55;21.27;;;1229.30;1254.40;;;;;;5092048;28;20020;-63
2023/07/16 07:20:57;;;;;;;23.08;21.27;;;;;;;;;;5077585;28;20538;-63
2023/07/16 07:23:22;;;;;;;23.17;21.60;;;1229.50;1177.60;;;;;;5091824;28;20051;-64
2023/07/16 07:25:51;;;;;;;22.45;21.00;;;1229.50;1228.80;;;;;;5091635;28;20024;-63
2023/07/16 07:28:19;;;;;;;24.08;22.02;;;1254.50;1228.80;;;;;;5091616;28;20470;-64
2023/07/16 07:30:45;;;;;;;22.88;21.23;;;1229.20;1254.40;;;;;;5091389;28;20085;-64
2023/07/16 07:33:11;;;;;;;23.95;21.98;;;1229.30;1254.40;;;;;;5091806;28;20035;-65
2023/07/16 07:35:37;;;;;;;22.20;20.70;;;1229.50;1203.20;;;;;;5091261;28;20024;-62
2023/07/16 07:38:03;;;;;;;23.05;21.52;;;;;;;;;;5091054;28;20156;-62
2023/07/16 07:40:28;;;;;;;22.35;21.00;;;1254.90;1228.80;;;;;;5091287;28;20038;-64
2023/07/16 07:42:54;;;;;;;23.83;22.23;;;;;;;;;;5091083;28;20107;-64
2023/07/16 07:45:20;;;;;;;22.60;21.10;;;1255.30;1177.60;;;;;;5091455;28;20073;-64
2023/07/16 07:47:46;;;;;;;21.80;20.35;;;1280.00;1177.60;;;;;;5090761;28;20494;-65
2023/07/16 07:50:11;;;;;;;24.23;22.23;;;1280.40;1152.00;;;;;;5090810;28;20057;-64
2023/07/16 07:52:37;;;;;;;23.25;21.73;;;1280.70;1152.00;;;;;;5090974;28;20360;-64
2023/07/16 07:55:03;;;;;;;23.25;21.83;;;1280.90;1152.00;;;;;;5090626;28;20027;-64
2023/07/16 07:57:29;;;;;;;22.48;20.98;;;1255.30;1177.60;;;;;;5091018;28;20016;-64
2023/07/16 07:59:57;;;;;;;24.20;22.60;;;1280.50;1152.00;;;;;;5090772;28;20020;-64
2023/07/16 08:02:26;;;;;;;22.35;20.58;;;1280.00;1177.60;;;;;;5080513;28;20490;-64
2023/07/16 08:04:55;;;;;;;22.35;20.65;;;1280.40;1152.00;;;;;;5071246;28;20200;-63
2023/07/16 08:07:25;;;;;;;24.20;22.48;;;1280.40;1152.00;;;;;;5071008;28;20104;-64
2023/07/16 08:09:51;;;;;;;22.67;21.02;;;1255.30;1126.40;;;;;;5070470;28;20024;-63
2023/07/16 08:12:17;;;;;;;24.92;23.17;;;1280.00;1126.40;;;;;;5070559;28;20035;-64
2023/07/16 08:14:42;;;;;;;23.20;21.50;;;1254.40;1177.60;;;;;;5070546;28;20068;-64
2023/07/16 08:17:08;;;;;;;23.00;21.20;;;1228.80;1203.20;;;;;;5083429;28;20112;-63
2023/07/16 08:19:34;;;;;;;23.42;21.75;;;1203.90;1177.60;;;;;;5090389;28;20538;-63
2023/07/16 08:21:59;;;;;;;23.65;21.77;;;1203.70;1228.80;;;;;;5070865;28;20550;-62
2023/07/16 08:24:25;;;;;;;23.50;21.58;;;1177.80;1254.40;;;;;;5075608;28;20024;-64
2023/07/16 08:26:51;;;;;;;20.42;18.90;;;1101.70;1331.20;;;;;;5070475;28;20020;-64
2023/07/16 08:29:17;;;;;;;19.60;17.90;;;1075.30;1382.40;;;;;;5069894;28;20025;-63
2023/07/16 08:31:43;;;;;;;19.80;18.30;;;1050.40;1433.60;;;;;;5071518;28;20058;-62
2023/07/16 08:34:08;;;;;;;18.90;17.20;;;1024.10;1484.80;;;;;;5069686;28;20086;-63
2023/07/16 08:36:36;;;;;;;18.70;17.20;;;1024.10;1510.40;;;;;;5067981;28;20082;-64
2023/07/16 08:39:01;;;;;;;19.27;17.60;;;1024.00;1510.40;;;;;;5068501;28;20016;-64
2023/07/16 08:41:28;;;;;;;17.15;15.85;;;999.10;1484.80;;;;;;5068842;28;20471;-64
2023/07/16 08:43:54;;;;;;;18.92;17.05;;;998.80;1484.80;;;;;;5074174;28;20023;-61
2023/07/16 08:46:20;;;;;;;18.23;16.65;;;998.70;1510.40;;;;;;5074625;28;20060;-63
2023/07/16 08:48:47;;;;;;;17.83;16.05;;;998.50;1510.40;;;;;;5068113;28;20033;-61
2023/07/16 08:51:15;;;;;;;16.40;14.80;;;998.50;1484.80;;;;;;5068190;28;20029;-64
2023/07/16 08:53:41;;;;;;;18.40;16.70;;;998.40;1484.80;;;;;;5068679;28;20032;-64
2023/07/16 08:56:08;;;;;;;18.13;16.63;;;973.70;1510.40;;;;;;5080148;28;20382;-62
2023/07/16 08:58:34;;;;;;;18.33;16.70;;;973.50;1561.60;;;;;;5069210;28;20081;-63
2023/07/16 09:01:01;;;;;;;17.63;16.10;;;973.70;1510.40;;;;;;5068191;28;20262;-64
2023/07/16 09:03:26;;;;;;;17.50;15.90;;;973.70;1484.80;;;;;;5067812;28;20055;-65
2023/07/16 09:05:54;;;;;;;17.48;15.70;;;973.70;1536.00;;;;;;5067768;28;20032;-66
2023/07/16 09:08:20;;;;;;;17.40;16.00;;;973.70;1536.00;;;;;;5077685;28;20028;-64
2023/07/16 09:10:54;;;;;;;18.15;16.52;;;973.70;1484.80;;;;;;5086656;28;20390;-63
2023/07/16 09:13:19;;;;;;;17.60;16.10;;;973.70;1459.20;;;;;;5088307;28;20047;-64
2023/07/16 09:15:51;;;;;;;17.67;16.17;;;973.70;1510.40;;;;;;5087632;28;20053;-64
2023/07/16 09:18:21;;;;;;;17.63;15.40;;;973.70;1587.20;;;;;;5088195;28;20035;-63
2023/07/16 09:20:47;;;;;;;18.52;16.92;;;972.90;1612.80;;;;;;5087707;28;20143;-63
2023/07/16 09:23:16;;;;;;;17.52;15.98;;;948.10;1638.40;;;;;;5088172;28;20081;-63
2023/07/16 09:25:42;;;;;;;18.60;16.75;;;948.10;1612.80;;;;;;5088009;28;20027;-62
2023/07/16 09:28:08;;;;;;;18.02;16.40;;;947.70;1638.40;;;;;;5088174;28;20124;-63
2023/07/16 09:30:34;;;;;;;17.30;15.55;;;947.80;1664.00;;;;;;5081286;28;20130;-62
2023/07/16 09:33:12;;;;;;;18.45;16.58;;;947.30;1664.00;;;;;;5080624;28;20099;-63
2023/07/16 09:35:38;;;;;;;17.92;16.05;;;947.20;1638.40;;;;;;5080971;28;20028;-62
2023/07/16 09:38:04;;;;;;;17.90;16.10;;;947.30;1638.40;;;;;;5087177;28;20035;-64
2023/07/16 09:40:30;;;;;;;18.50;16.75;;;922.50;1664.00;;;;;;5084084;28;20035;-62
2023/07/16 09:42:56;;;;;;;17.33;15.68;;;947.30;1664.00;;;;;;5087002;28;20105;-64
2023/07/16 09:45:22;;;;;;;17.98;16.35;;;947.40;1689.60;;;;;;5085263;28;20532;-64
2023/07/16 09:47:48;;;;;;;16.45;14.85;;;947.70;1664.00;;;;;;5086660;28;20092;-64
2023/07/16 09:50:14;;;;;;;18.15;16.35;;;947.80;1638.40;;;;;;5087070;28;20723;-63
2023/07/16 09:52:42;;;;;;;17.67;15.88;;;947.40;1664.00;;;;;;5087921;28;20016;-66
2023/07/16 09:55:09;;;;;;;18.73;16.23;;;947.40;1664.00;;;;;;5087338;28;20026;-64
2023/07/16 09:57:42;;;;;;;18.88;17.00;;;947.20;1689.60;;;;;;5087549;28;20100;-65
2023/07/16 10:00:13;;;;;;;17.40;15.70;;;922.50;1689.60;;;;;;5087155;28;20020;-64
2023/07/16 10:02:40;;;;;;;17.20;15.82;;;947.40;1664.00;;;;;;5087032;28;20040;-64
2023/07/16 10:05:35;;;;;;;18.83;17.13;;;947.30;1715.20;;;;;;5076933;28;20051;-64
2023/07/16 10:08:01;;;;;;;16.20;14.80;;;922.50;1689.60;;;;;;5066244;28;20383;-65
2023/07/16 10:10:53;;;;;;;18.13;16.50;;;947.40;1689.60;;;;;;5066431;28;20036;-65
2023/07/16 10:13:22;;;;;;;17.38;15.88;;;922.50;1664.00;;;;;;5067251;28;20032;-66
2023/07/16 10:15:56;;;;;;;18.60;16.73;;;922.50;1638.40;;;;;;5066687;28;20507;-65
2023/07/16 10:18:31;;;;;;;18.63;16.65;;;947.20;1689.60;;;;;;5066925;28;20047;-64
2023/07/16 10:21:06;;;;;;;19.05;16.48;;;947.50;1740.80;;;;;;5067210;28;20042;-66
2023/07/16 10:23:43;;;;;;;17.52;16.10;;;947.50;1715.20;;;;;;5071229;28;20029;-65
2023/07/16 10:26:11;;;;;;;18.88;16.95;;;922.40;1689.60;;;;;;5071063;28;20091;-65
2023/07/16 10:28:38;;;;;;;17.65;16.00;;;922.00;1715.20;;;;;;5070648;28;20016;-63
2023/07/16 10:31:05;;;;;;;19.00;17.17;;;922.40;1715.20;;;;;;5070861;28;20502;-64
2023/07/16 10:33:31;;;;;;;18.85;17.15;;;922.50;1715.20;;;;;;5091150;28;20028;-64
2023/07/16 10:36:00;;;;;;;19.65;17.35;;;947.30;1689.60;;;;;;5077108;28;20040;-64
2023/07/16 10:38:26;;;;;;;19.90;18.08;;;947.30;1715.20;;;;;;5070811;28;20025;-63
2023/07/16 10:40:52;;;;;;;16.90;15.40;;;947.30;1664.00;;;;;;5070343;28;20029;-64
2023/07/16 10:43:18;;;;;;;16.90;15.30;;;947.30;1689.60;;;;;;5070557;28;20029;-65
2023/07/16 10:45:46;;;;;;;19.00;16.75;;;947.40;1715.20;;;;;;5070800;28;20028;-65
2023/07/16 10:48:12;;;;;;;18.52;16.77;;;947.40;1689.60;;;;;;5070392;28;20044;-65
2023/07/16 10:50:38;;;;;;;18.17;16.58;;;947.40;1689.60;;;;;;5070568;28;20497;-65
2023/07/16 10:53:05;;;;;;;18.52;16.92;;;947.40;1715.20;;;;;;5076685;28;20398;-65
2023/07/16 10:55:37;;;;;;;18.05;16.55;;;947.40;1715.20;;;;;;5079139;28;20024;-64
2023/07/16 10:58:06;;;;;;;18.15;16.30;;;922.30;1715.20;;;;;;5078108;28;20505;-64
2023/07/16 11:00:36;;;;;;;18.27;16.77;;;922.30;1740.80;;;;;;5090770;28;20067;-65
2023/07/16 11:03:01;;;;;;;18.52;16.55;;;921.90;1740.80;;;;;;5090787;28;20059;-64
2023/07/16 11:05:28;;;;;;;19.10;17.23;;;922.00;1766.40;;;;;;5090209;28;20055;-63
2023/07/16 11:07:54;;;;;;;18.48;16.77;;;922.10;1740.80;;;;;;5090253;28;20016;-65
2023/07/16 11:10:20;;;;;;;17.83;16.33;;;921.70;1766.40;;;;;;5090126;28;20038;-64
2023/07/16 11:12:52;;;;;;;19.10;17.40;;;922.00;1766.40;;;;;;5090359;28;20020;-64
2023/07/16 11:15:17;;;;;;;19.13;17.42;;;922.10;1740.80;;;;;;5090198;28;20482;-65
2023/07/16 11:17:50;;;;;;;18.63;16.67;;;922.10;1766.40;;;;;;5090246;28;20060;-64
2023/07/16 11:20:15;;;;;;;20.20;18.25;;;922.00;1740.80;;;;;;5089763;28;20024;-65
2023/07/16 11:22:41;;;;;;;18.35;16.67;;;922.00;1766.40;;;;;;5090204;28;20081;-65
2023/07/16 11:25:13;;;;;;;17.17;15.57;;;922.30;1740.80;;;;;;5090037;28;20024;-65
2023/07/16 11:27:42;;;;;;;18.23;16.50;;;922.30;1766.40;;;;;;5090080;28;20032;-64
2023/07/16 11:30:08;;;;;;;17.83;16.25;;;922.40;1740.80;;;;;;5089882;28;20103;-64
2023/07/16 11:32:42;;;;;;;18.88;17.13;;;922.00;1740.80;;;;;;5089029;28;20032;-65
2023/07/16 11:35:08;;;;;;;17.17;15.48;;;;;;;;;;5089758;28;20106;-64
2023/07/16 11:37:35;;;;;;;19.30;17.30;;;;;;;;;;5089689;28;20535;-65
2023/07/16 11:40:03;;;;;;;18.48;16.60;;;;;;;;;;5089618;28;20020;-64
2023/07/16 11:42:29;;;;;;;17.95;16.35;;;;;;;;;;5089983;28;20016;-64
2023/07/16 11:44:55;;;;;;;18.15;16.65;;;;;;;;;;5083771;28;20081;-63
2023/07/16 11:47:21;;;;;;;18.92;17.00;;;;;;;;;;5088643;28;20066;-65
2023/07/16 11:49:49;;;;;;;19.40;17.42;;;;;;;;;;5089049;28;20050;-64
2023/07/16 11:52:15;;;;;;;21.33;16.17;;;;;;;;;;5089315;28;20040;-65
2023/07/16 11:54:41;;;;;;;20.10;18.38;;;;;;;;;;5089606;28;20043;-65
2023/07/16 11:57:07;;;;;;;18.55;16.85;;;;;;;;;;5083211;28;20463;-65
2023/07/16 11:59:33;;;;;;;20.00;16.85;;;;;;;;;;5089016;28;20081;-65
2023/07/16 12:02:00;;;;;;;20.08;18.33;;;;;;;;;;5088929;28;20022;-65
2023/07/16 12:04:26;;;;;;;18.70;16.88;;;;;;;;;;5083685;28;20500;-64
2023/07/16 12:06:52;;;;;;;18.63;16.42;;;;;;;;;;5089001;28;20139;-65